Eliza — WDG9716 — position and weather

sailwx.info

Track history (hours):
 
Tides and Currents Weather Stations Pressure Air Temp Water Temp Dewpoint Dewpoint Depression Visibility Wind Speed Wind Dir Waves Ship Positions

Eliza

Owner: Kirby Offshore Marine, LLC, Staten Island, NY. More information available from US FCC via Universal Licensing System and Coast Guard Vessel Documentation Center.

Last reported at 2018-Jun-23 11:30 UTC. Time now 2018-Jun-23 11:55 UTC.
Position N 29°50' W 093°58'.

Length 173 m; draft 9 m.

Type: . MMSI: 366672810.

Date/timePositionNaut miles runAvg speedWind from/ knotsBaromVisibWave heightAir tempDewpointWater temp
2018-Jun-23 11:30N 29°50' W 093°58'0 0.0
2018-Jun-23 11:00N 29°50' W 093°58'0 0.0
2018-Jun-23 10:30N 29°50' W 093°58'0 0.0
2018-Jun-23 10:00N 29°50' W 093°58'0 0.0
2018-Jun-23 09:30N 29°50' W 093°58'0 0.0
2018-Jun-23 09:00N 29°50' W 093°58'0 0.0
2018-Jun-23 08:30N 29°50' W 093°58'0 0.0
2018-Jun-23 08:00N 29°50' W 093°58'0 0.0
2018-Jun-23 07:30N 29°50' W 093°58'0 0.0
2018-Jun-23 07:00N 29°50' W 093°58'0 0.0
2018-Jun-23 06:29N 29°50' W 093°58'0 0.0
2018-Jun-23 05:59N 29°50' W 093°58'0 0.0
2018-Jun-23 05:30N 29°50' W 093°58'0 0.0
2018-Jun-23 05:00N 29°50' W 093°58'0 0.0
2018-Jun-23 04:30N 29°50' W 093°58'0 0.0
2018-Jun-23 04:00N 29°50' W 093°58'0 0.0
2018-Jun-23 03:30N 29°50' W 093°58'0 0.0
2018-Jun-23 03:00N 29°50' W 093°58'0 0.0
2018-Jun-23 02:30N 29°50' W 093°58'0 0.8
2018-Jun-23 02:00N 29°49' W 093°58'3 5.7
2018-Jun-23 01:31N 29°47' W 093°57'3 6.6
2018-Jun-23 01:01N 29°45' W 093°53'3 6.7
2018-Jun-23 00:30N 29°42' W 093°51'3 6.0
2018-Jun-23 00:00N 29°40' W 093°50'4 7.1
2018-Jun-22 23:31N 29°36' W 093°48'1 2.9
2018-Jun-22 23:00N 29°35' W 093°47'3 6.3
2018-Jun-22 22:30N 29°36' W 093°43'0 0.9
2018-Jun-22 22:00N 29°36' W 093°43'0 0.0
2018-Jun-22 21:30N 29°36' W 093°43'0 0.0
2018-Jun-22 20:54N 29°36' W 093°43'0 0.0
2018-Jun-22 20:18N 29°36' W 093°43'0 0.1
2018-Jun-22 20:00N 29°36' W 093°43'0 0.0
2018-Jun-22 19:30N 29°36' W 093°43'0 0.0
2018-Jun-22 19:00N 29°36' W 093°43'0 0.0
2018-Jun-22 18:24N 29°36' W 093°43'0 0.0
2018-Jun-22 17:54N 29°36' W 093°43'0 0.0
2018-Jun-22 17:27N 29°36' W 093°43'0 0.0
2018-Jun-22 16:51N 29°36' W 093°43'0 0.0
2018-Jun-22 16:30N 29°36' W 093°43'0 0.0
2018-Jun-22 16:00N 29°36' W 093°43'0 0.0
2018-Jun-22 15:27N 29°36' W 093°43'0 0.1
2018-Jun-22 14:57N 29°36' W 093°43'0 0.0
2018-Jun-22 14:30N 29°36' W 093°43'0 0.0
2018-Jun-22 14:00N 29°36' W 093°43'0 0.1
2018-Jun-22 13:30N 29°36' W 093°43'2 4.4
2018-Jun-22 13:00N 29°34' W 093°44'4 8.0
2018-Jun-22 12:30N 29°31' W 093°46'4 8.5
2018-Jun-22 12:00N 29°29' W 093°51'4 8.4
2018-Jun-22 11:30N 29°28' W 093°55'4 8.4
2018-Jun-22 11:00N 29°26' W 093°59'5 9.1
2018-Jun-22 10:24N 29°23' W 094°04'25 8.1
2018-Jun-22 07:18N 29°12' W 094°30'9 9.0
2018-Jun-22 06:21N 29°18' W 094°37'4 9.2
2018-Jun-22 05:57N 29°20' W 094°41'4 8.6
2018-Jun-22 05:29N 29°21' W 094°45'4 7.9
2018-Jun-22 05:00N 29°23' W 094°49'5 9.6
2018-Jun-22 04:30N 29°28' W 094°51'5 9.6
2018-Jun-22 04:00N 29°32' W 094°54'5 9.3
2018-Jun-22 03:30N 29°36' W 094°56'5 9.0
2018-Jun-22 03:00N 29°40' W 094°58'4 8.5
2018-Jun-22 02:30N 29°43' W 095°01'4 7.7
2018-Jun-22 01:57N 29°46' W 095°05'1 2.7
2018-Jun-22 01:30N 29°45' W 095°06'0 0.0
2018-Jun-21 05:51N 29°45' W 095°06'5 0.3
2018-Jun-20 14:07N 29°43' W 095°01'1 7.5
2018-Jun-20 13:59N 29°42' W 095°01'4 8.8
2018-Jun-20 13:30N 29°39' W 094°58'5 9.1
2018-Jun-20 13:00N 29°35' W 094°56'5 9.6
2018-Jun-20 12:28N 29°30' W 094°52'5 9.3
2018-Jun-20 11:56N 29°26' W 094°50'6 0.7
2018-Jun-20 03:12N 29°21' W 094°45'0 0.1
2018-Jun-20 02:45N 29°21' W 094°45'0 0.0
2018-Jun-20 02:30N 29°21' W 094°45'0 0.3
2018-Jun-20 02:00N 29°21' W 094°45'0 0.2
2018-Jun-20 01:30N 29°21' W 094°45'0 0.1
2018-Jun-20 01:00N 29°21' W 094°45'0 0.0
2018-Jun-20 00:30N 29°21' W 094°45'0 0.0
2018-Jun-20 00:00N 29°21' W 094°45'0 0.0
2018-Jun-19 23:30N 29°21' W 094°45'0 0.0
2018-Jun-19 23:00N 29°21' W 094°45'0 0.2
2018-Jun-19 22:27N 29°21' W 094°45'0 0.1
2018-Jun-19 21:57N 29°21' W 094°45'0 0.1
2018-Jun-19 20:36N 29°21' W 094°45'0 0.0
2018-Jun-19 20:12N 29°21' W 094°45'0 0.1
2018-Jun-19 19:51N 29°21' W 094°45'0 0.0
2018-Jun-19 19:30N 29°21' W 094°45'0 0.0
2018-Jun-19 19:00N 29°21' W 094°45'0 0.0
2018-Jun-19 18:30N 29°21' W 094°45'0 0.0
2018-Jun-19 17:57N 29°21' W 094°45'0 0.0
2018-Jun-19 17:30N 29°21' W 094°45'0 0.0
2018-Jun-19 17:00N 29°21' W 094°45'0 0.0
2018-Jun-19 16:30N 29°21' W 094°45'0 0.0
2018-Jun-19 16:00N 29°21' W 094°45'0 0.0
2018-Jun-19 15:30N 29°21' W 094°45'0 0.0
2018-Jun-19 15:00N 29°21' W 094°45'0 0.0
2018-Jun-19 14:27N 29°21' W 094°45'0 0.0
2018-Jun-19 14:00N 29°21' W 094°45'0 0.0
2018-Jun-19 06:57N 29°21' W 094°45'0 0.0
2018-Jun-19 05:27N 29°21' W 094°45'0 0.1
2018-Jun-19 05:00N 29°21' W 094°45'0 0.0
2018-Jun-19 04:21N 29°21' W 094°45'0 0.0
2018-Jun-19 04:00N 29°21' W 094°45'0 0.0
2018-Jun-19 03:21N 29°21' W 094°45'0 0.0
2018-Jun-19 03:00N 29°21' W 094°45'0 0.0
2018-Jun-19 00:36N 29°21' W 094°45'0 0.1
2018-Jun-19 00:15N 29°21' W 094°45'0 0.2
2018-Jun-19 00:00N 29°21' W 094°45'0 0.2
2018-Jun-18 23:30N 29°21' W 094°45'0 0.1
2018-Jun-18 22:51N 29°21' W 094°45'0 0.0
2018-Jun-18 22:30N 29°21' W 094°45'0 0.1
2018-Jun-18 22:00N 29°21' W 094°45'0 0.1
2018-Jun-18 21:30N 29°21' W 094°45'0 0.1
2018-Jun-18 21:00N 29°21' W 094°45'0 0.0
2018-Jun-18 20:00N 29°21' W 094°45'0 0.1
2018-Jun-18 18:27N 29°21' W 094°45'0 0.1
2018-Jun-18 18:00N 29°21' W 094°45'0 0.0
2018-Jun-18 17:27N 29°21' W 094°45'0 0.0
2018-Jun-18 17:00N 29°21' W 094°45'0 0.0
2018-Jun-18 16:30N 29°21' W 094°45'0 0.0
2018-Jun-18 16:00N 29°21' W 094°45'0 0.0
2018-Jun-18 15:30N 29°21' W 094°45'0 0.0
2018-Jun-18 15:00N 29°21' W 094°45'0 0.0
2018-Jun-18 14:30N 29°21' W 094°45'0 0.1
2018-Jun-18 14:00N 29°21' W 094°45'0 0.0
2018-Jun-18 13:30N 29°21' W 094°45'0 0.0
2018-Jun-18 13:00N 29°21' W 094°45'0 0.0
2018-Jun-18 12:30N 29°21' W 094°45'0 0.0
2018-Jun-18 12:00N 29°21' W 094°45'0 0.0
2018-Jun-18 11:24N 29°21' W 094°45'0 0.1
2018-Jun-18 10:51N 29°21' W 094°45'0 0.1
2018-Jun-18 10:27N 29°21' W 094°45'0 0.2
2018-Jun-18 10:00N 29°21' W 094°45'0 0.2
2018-Jun-18 09:27N 29°21' W 094°45'0 0.0
2018-Jun-18 09:00N 29°21' W 094°45'0 0.1
2018-Jun-18 08:30N 29°21' W 094°45'0 0.1
2018-Jun-18 08:00N 29°21' W 094°45'0 0.0
2018-Jun-18 07:30N 29°21' W 094°45'0 0.0
2018-Jun-18 07:00N 29°21' W 094°45'0 0.1
2018-Jun-18 06:30N 29°21' W 094°45'0 0.1
2018-Jun-18 06:00N 29°21' W 094°45'0 0.1
2018-Jun-18 05:30N 29°21' W 094°45'0 0.0
2018-Jun-18 05:00N 29°21' W 094°45'0 0.0
2018-Jun-18 04:27N 29°21' W 094°45'0 0.1
2018-Jun-18 03:30N 29°21' W 094°45'0 0.0
2018-Jun-18 02:51N 29°21' W 094°45'0 0.0
2018-Jun-18 02:24N 29°21' W 094°45'0 0.0
2018-Jun-18 01:21N 29°21' W 094°45'0 0.0
2018-Jun-18 00:54N 29°21' W 094°45'0 0.0
2018-Jun-17 23:12N 29°21' W 094°45'0 0.0
2018-Jun-17 22:39N 29°21' W 094°45'0 0.1
2018-Jun-17 22:24N 29°21' W 094°45'0 0.1
2018-Jun-17 21:42N 29°21' W 094°45'0 0.1
2018-Jun-17 21:30N 29°21' W 094°45'0 0.0
2018-Jun-17 20:42N 29°21' W 094°45'0 0.0
2018-Jun-17 19:42N 29°21' W 094°45'0 0.1
2018-Jun-17 19:30N 29°21' W 094°45'0 0.0
2018-Jun-17 19:00N 29°21' W 094°45'0 0.0
2018-Jun-17 18:30N 29°21' W 094°45'0 0.0
2018-Jun-17 17:57N 29°21' W 094°45'0 0.0
2018-Jun-17 17:30N 29°21' W 094°45'0 0.0
2018-Jun-17 17:00N 29°21' W 094°45'0 0.0
2018-Jun-17 16:30N 29°21' W 094°45'0 0.0
2018-Jun-17 16:00N 29°21' W 094°45'0 0.0
2018-Jun-17 15:27N 29°21' W 094°45'0 0.0
2018-Jun-17 15:00N 29°21' W 094°45'0 0.0
2018-Jun-17 14:27N 29°21' W 094°45'0 0.0
2018-Jun-17 14:00N 29°21' W 094°45'0 0.0
2018-Jun-17 03:21N 29°21' W 094°45'0 0.0
2018-Jun-17 02:24N 29°21' W 094°45'0 0.2
2018-Jun-17 02:00N 29°21' W 094°45'0 0.1
2018-Jun-16 23:48N 29°21' W 094°45'0 0.0
2018-Jun-16 21:48N 29°21' W 094°45'0 0.0
2018-Jun-16 21:24N 29°21' W 094°45'0 0.0
2018-Jun-16 20:54N 29°21' W 094°45'0 0.0
2018-Jun-16 20:18N 29°21' W 094°45'0 0.1
2018-Jun-16 20:00N 29°21' W 094°45'0 0.0
2018-Jun-16 19:30N 29°21' W 094°45'0 0.0
2018-Jun-16 19:00N 29°21' W 094°45'0 0.0
2018-Jun-16 18:27N 29°21' W 094°45'0 0.0
2018-Jun-16 18:00N 29°21' W 094°45'0 0.0
2018-Jun-16 17:30N 29°21' W 094°45'0 0.0
2018-Jun-16 17:00N 29°21' W 094°45'0 0.0
2018-Jun-16 16:30N 29°21' W 094°45'0 0.0
2018-Jun-16 16:00N 29°21' W 094°45'0 0.0
2018-Jun-16 15:30N 29°21' W 094°45'0 0.0
2018-Jun-16 14:57N 29°21' W 094°45'0 0.0
2018-Jun-16 14:30N 29°21' W 094°45'0 0.0
2018-Jun-16 14:00N 29°21' W 094°45'0 0.0
2018-Jun-16 13:30N 29°21' W 094°45'0 0.0
2018-Jun-16 13:00N 29°21' W 094°45'0 0.0
2018-Jun-16 12:30N 29°21' W 094°45'0 0.0
2018-Jun-16 12:00N 29°21' W 094°45'0 0.0
2018-Jun-16 08:24N 29°21' W 094°45'0 0.1
2018-Jun-16 08:00N 29°21' W 094°45'0 0.0
2018-Jun-16 07:30N 29°21' W 094°45'0 0.1
2018-Jun-16 07:00N 29°21' W 094°45'0 0.3
2018-Jun-16 06:30N 29°21' W 094°45'2 4.8
2018-Jun-16 06:00N 29°21' W 094°42'23 8.9
2018-Jun-16 03:25N 29°13' W 094°17'610.6
2018-Jun-16 02:52N 29°17' W 094°12'410.6
2018-Jun-16 02:29N 29°20' W 094°09'510.6
2018-Jun-16 02:00N 29°24' W 094°05'510.6
2018-Jun-16 01:30N 29°27' W 094°01'510.2
2018-Jun-16 01:00N 29°30' W 093°55'510.7
2018-Jun-16 00:30N 29°31' W 093°49'4 7.5
2018-Jun-16 00:00N 29°33' W 093°46'510.3
2018-Jun-15 23:30N 29°38' W 093°49'510.0
2018-Jun-15 23:00N 29°42' W 093°51'4 7.5
2018-Jun-15 22:30N 29°45' W 093°54'4 8.4
2018-Jun-15 22:00N 29°48' W 093°57'2 3.2
2018-Jun-15 21:30N 29°50' W 093°58'0 0.0
2018-Jun-15 21:00N 29°50' W 093°58'0 0.0
2018-Jun-15 20:30N 29°50' W 093°58'0 0.0
2018-Jun-15 19:59N 29°50' W 093°58'0 0.0
2018-Jun-15 19:29N 29°50' W 093°58'0 0.0
2018-Jun-15 18:56N 29°50' W 093°58'0 0.0
2018-Jun-15 18:29N 29°50' W 093°58'0 0.0
2018-Jun-15 17:59N 29°50' W 093°58'0 0.0
2018-Jun-15 17:29N 29°50' W 093°58'0 0.0
2018-Jun-15 16:59N 29°50' W 093°58'0 0.0
2018-Jun-15 16:29N 29°50' W 093°58'0 0.0
2018-Jun-15 15:59N 29°50' W 093°58'0 0.0
2018-Jun-15 15:29N 29°50' W 093°58'0 0.0
2018-Jun-15 14:59N 29°50' W 093°58'0 0.0
2018-Jun-15 14:29N 29°50' W 093°58'0 0.0
2018-Jun-15 13:59N 29°50' W 093°58'0 0.0
2018-Jun-15 13:29N 29°50' W 093°58'0 0.0
2018-Jun-15 12:59N 29°50' W 093°58'0 0.0
2018-Jun-15 12:29N 29°50' W 093°58'0 0.0
2018-Jun-15 11:59N 29°50' W 093°58'0 0.0
2018-Jun-15 11:29N 29°50' W 093°58'0 0.0
2018-Jun-15 10:59N 29°50' W 093°58'0 0.0
2018-Jun-15 10:26N 29°50' W 093°58'0 0.0
2018-Jun-15 09:59N 29°50' W 093°58'0 0.0
2018-Jun-15 09:29N 29°50' W 093°58'0 0.0
2018-Jun-15 08:59N 29°50' W 093°58'0 0.0
2018-Jun-15 08:29N 29°50' W 093°58'0 0.0
2018-Jun-15 07:59N 29°50' W 093°58'0 0.0
2018-Jun-15 07:29N 29°50' W 093°58'0 0.0
2018-Jun-15 06:59N 29°50' W 093°58'0 0.0
2018-Jun-15 06:29N 29°50' W 093°58'0 0.0
2018-Jun-15 05:59N 29°50' W 093°58'0 0.0
2018-Jun-15 05:29N 29°50' W 093°58'0 0.0
2018-Jun-15 04:59N 29°50' W 093°58'0 0.0
2018-Jun-15 04:29N 29°50' W 093°58'0 0.0
2018-Jun-15 03:59N 29°50' W 093°58'0 0.0
2018-Jun-15 03:29N 29°50' W 093°58'0 0.0
2018-Jun-15 02:59N 29°50' W 093°58'0 0.0
2018-Jun-15 02:29N 29°50' W 093°58'0 0.0
2018-Jun-15 01:59N 29°50' W 093°58'0 0.0
2018-Jun-15 01:31N 29°50' W 093°58'2 4.8
2018-Jun-15 01:00N 29°47' W 093°57'4 7.8
2018-Jun-15 00:30N 29°45' W 093°53'4 7.8
2018-Jun-15 00:01N 29°42' W 093°51'4 7.8
2018-Jun-14 23:30N 29°38' W 093°49'4 8.2
2018-Jun-14 23:00N 29°35' W 093°47'2 3.4
2018-Jun-14 22:31N 29°36' W 093°45'0 0.5
2018-Jun-14 21:59N 29°36' W 093°45'0 0.1
2018-Jun-14 21:29N 29°36' W 093°45'0 0.2
2018-Jun-14 20:59N 29°36' W 093°45'0 0.2
2018-Jun-14 20:29N 29°36' W 093°45'0 0.1
2018-Jun-14 19:59N 29°36' W 093°45'0 0.1
2018-Jun-14 19:29N 29°36' W 093°45'0 0.1
2018-Jun-14 18:59N 29°36' W 093°45'0 0.0
2018-Jun-14 18:29N 29°36' W 093°45'0 0.0
2018-Jun-14 17:59N 29°36' W 093°45'0 0.1
2018-Jun-14 17:29N 29°36' W 093°45'0 0.0
2018-Jun-14 16:59N 29°36' W 093°45'0 0.0
2018-Jun-14 16:29N 29°36' W 093°45'0 0.0
2018-Jun-14 15:56N 29°36' W 093°45'0 0.0
2018-Jun-14 15:26N 29°36' W 093°45'0 0.0
2018-Jun-14 14:59N 29°36' W 093°45'0 0.0
2018-Jun-14 14:26N 29°36' W 093°45'0 0.1
2018-Jun-14 13:59N 29°36' W 093°45'0 0.0
2018-Jun-14 13:29N 29°36' W 093°45'0 0.0
2018-Jun-14 12:59N 29°36' W 093°45'0 0.1
2018-Jun-14 12:29N 29°36' W 093°45'0 0.0
2018-Jun-14 11:59N 29°36' W 093°45'0 0.0
2018-Jun-14 11:29N 29°36' W 093°45'0 0.0
2018-Jun-14 10:59N 29°36' W 093°45'0 0.0
2018-Jun-14 10:29N 29°36' W 093°45'0 0.0
2018-Jun-14 09:59N 29°36' W 093°45'0 0.0
2018-Jun-14 09:29N 29°36' W 093°45'0 0.0
2018-Jun-14 08:59N 29°36' W 093°45'0 0.0
2018-Jun-14 08:29N 29°36' W 093°45'0 0.0
2018-Jun-14 07:59N 29°36' W 093°45'0 0.0
2018-Jun-14 07:29N 29°36' W 093°45'0 0.0
2018-Jun-14 06:59N 29°36' W 093°45'0 0.0
2018-Jun-14 06:29N 29°36' W 093°45'0 0.0
2018-Jun-14 05:59N 29°36' W 093°45'0 0.0
2018-Jun-14 05:26N 29°36' W 093°45'0 0.0
2018-Jun-14 04:59N 29°36' W 093°45'0 0.0
2018-Jun-14 04:29N 29°36' W 093°45'0 0.0
2018-Jun-14 03:59N 29°36' W 093°45'0 0.0
2018-Jun-14 03:29N 29°36' W 093°45'0 0.0
2018-Jun-14 02:59N 29°36' W 093°45'0 0.0
2018-Jun-14 02:29N 29°36' W 093°45'0 0.0
2018-Jun-14 01:59N 29°36' W 093°45'0 0.0
2018-Jun-14 01:29N 29°36' W 093°45'0 0.0
2018-Jun-14 00:59N 29°36' W 093°45'0 0.0
2018-Jun-14 00:29N 29°36' W 093°45'0 0.0
2018-Jun-13 23:59N 29°36' W 093°45'0 0.0
2018-Jun-13 23:29N 29°36' W 093°45'0 0.0
2018-Jun-13 22:59N 29°36' W 093°45'0 0.0
2018-Jun-13 22:29N 29°36' W 093°45'0 0.0
2018-Jun-13 21:59N 29°36' W 093°45'0 0.0
2018-Jun-13 21:29N 29°36' W 093°45'0 0.0
2018-Jun-13 20:59N 29°36' W 093°45'0 0.0
2018-Jun-13 20:29N 29°36' W 093°45'0 0.0
2018-Jun-13 19:59N 29°36' W 093°45'0 0.0
2018-Jun-13 19:29N 29°36' W 093°45'0 0.0
2018-Jun-13 18:59N 29°36' W 093°45'0 0.0
2018-Jun-13 18:29N 29°36' W 093°45'0 0.0
2018-Jun-13 17:59N 29°36' W 093°45'0 0.0
2018-Jun-13 17:29N 29°36' W 093°45'0 0.0
2018-Jun-13 16:59N 29°36' W 093°45'0 0.0
2018-Jun-13 16:29N 29°36' W 093°45'0 0.0
2018-Jun-13 15:59N 29°36' W 093°45'0 0.0
2018-Jun-13 15:29N 29°36' W 093°45'0 0.0
2018-Jun-13 14:59N 29°36' W 093°45'0 0.0
2018-Jun-13 14:29N 29°36' W 093°45'0 0.0
2018-Jun-13 13:59N 29°36' W 093°45'0 0.0
2018-Jun-13 13:29N 29°36' W 093°45'0 0.0
2018-Jun-13 12:59N 29°36' W 093°45'0 0.0
2018-Jun-13 12:29N 29°36' W 093°45'0 0.0
2018-Jun-13 11:59N 29°36' W 093°45'  
Track history (hours):
 
Tides and Currents Weather Stations Pressure Air Temp Water Temp Dewpoint Dewpoint Depression Visibility Wind Speed Wind Dir Waves Ship Positions

Eliza

Owner: Kirby Offshore Marine, LLC, Staten Island, NY. More information available from US FCC via Universal Licensing System and Coast Guard Vessel Documentation Center.

Last reported at 2018-Jun-23 11:30 UTC. Time now 2018-Jun-23 11:55 UTC.
Position N 29°50' W 093°58'.

Length 173 m; draft 9 m.

Type: . MMSI: 366672810.

Date/timePositionNaut miles runAvg speedWind from/ knotsBaromVisibWave heightAir tempDewpointWater temp
2018-Jun-23 11:30N 29°50' W 093°58'0 0.0
2018-Jun-23 11:00N 29°50' W 093°58'0 0.0
2018-Jun-23 10:30N 29°50' W 093°58'0 0.0
2018-Jun-23 10:00N 29°50' W 093°58'0 0.0
2018-Jun-23 09:30N 29°50' W 093°58'0 0.0
2018-Jun-23 09:00N 29°50' W 093°58'0 0.0
2018-Jun-23 08:30N 29°50' W 093°58'0 0.0
2018-Jun-23 08:00N 29°50' W 093°58'0 0.0
2018-Jun-23 07:30N 29°50' W 093°58'0 0.0
2018-Jun-23 07:00N 29°50' W 093°58'0 0.0
2018-Jun-23 06:29N 29°50' W 093°58'0 0.0
2018-Jun-23 05:59N 29°50' W 093°58'0 0.0
2018-Jun-23 05:30N 29°50' W 093°58'0 0.0
2018-Jun-23 05:00N 29°50' W 093°58'0 0.0
2018-Jun-23 04:30N 29°50' W 093°58'0 0.0
2018-Jun-23 04:00N 29°50' W 093°58'0 0.0
2018-Jun-23 03:30N 29°50' W 093°58'0 0.0
2018-Jun-23 03:00N 29°50' W 093°58'0 0.0
2018-Jun-23 02:30N 29°50' W 093°58'0 0.8
2018-Jun-23 02:00N 29°49' W 093°58'3 5.7
2018-Jun-23 01:31N 29°47' W 093°57'3 6.6
2018-Jun-23 01:01N 29°45' W 093°53'3 6.7
2018-Jun-23 00:30N 29°42' W 093°51'3 6.0
2018-Jun-23 00:00N 29°40' W 093°50'4 7.1
2018-Jun-22 23:31N 29°36' W 093°48'1 2.9
2018-Jun-22 23:00N 29°35' W 093°47'3 6.3
2018-Jun-22 22:30N 29°36' W 093°43'0 0.9
2018-Jun-22 22:00N 29°36' W 093°43'0 0.0
2018-Jun-22 21:30N 29°36' W 093°43'0 0.0
2018-Jun-22 20:54N 29°36' W 093°43'0 0.0
2018-Jun-22 20:18N 29°36' W 093°43'0 0.1
2018-Jun-22 20:00N 29°36' W 093°43'0 0.0
2018-Jun-22 19:30N 29°36' W 093°43'0 0.0
2018-Jun-22 19:00N 29°36' W 093°43'0 0.0
2018-Jun-22 18:24N 29°36' W 093°43'0 0.0
2018-Jun-22 17:54N 29°36' W 093°43'0 0.0
2018-Jun-22 17:27N 29°36' W 093°43'0 0.0
2018-Jun-22 16:51N 29°36' W 093°43'0 0.0
2018-Jun-22 16:30N 29°36' W 093°43'0 0.0
2018-Jun-22 16:00N 29°36' W 093°43'0 0.0
2018-Jun-22 15:27N 29°36' W 093°43'0 0.1
2018-Jun-22 14:57N 29°36' W 093°43'0 0.0
2018-Jun-22 14:30N 29°36' W 093°43'0 0.0
2018-Jun-22 14:00N 29°36' W 093°43'0 0.1
2018-Jun-22 13:30N 29°36' W 093°43'2 4.4
2018-Jun-22 13:00N 29°34' W 093°44'4 8.0
2018-Jun-22 12:30N 29°31' W 093°46'4 8.5
2018-Jun-22 12:00N 29°29' W 093°51'4 8.4
2018-Jun-22 11:30N 29°28' W 093°55'4 8.4
2018-Jun-22 11:00N 29°26' W 093°59'5 9.1
2018-Jun-22 10:24N 29°23' W 094°04'25 8.1
2018-Jun-22 07:18N 29°12' W 094°30'9 9.0
2018-Jun-22 06:21N 29°18' W 094°37'4 9.2
2018-Jun-22 05:57N 29°20' W 094°41'4 8.6
2018-Jun-22 05:29N 29°21' W 094°45'4 7.9
2018-Jun-22 05:00N 29°23' W 094°49'5 9.6
2018-Jun-22 04:30N 29°28' W 094°51'5 9.6
2018-Jun-22 04:00N 29°32' W 094°54'5 9.3
2018-Jun-22 03:30N 29°36' W 094°56'5 9.0
2018-Jun-22 03:00N 29°40' W 094°58'4 8.5
2018-Jun-22 02:30N 29°43' W 095°01'4 7.7
2018-Jun-22 01:57N 29°46' W 095°05'1 2.7
2018-Jun-22 01:30N 29°45' W 095°06'0 0.0
2018-Jun-21 05:51N 29°45' W 095°06'5 0.3
2018-Jun-20 14:07N 29°43' W 095°01'1 7.5
2018-Jun-20 13:59N 29°42' W 095°01'4 8.8
2018-Jun-20 13:30N 29°39' W 094°58'5 9.1
2018-Jun-20 13:00N 29°35' W 094°56'5 9.6
2018-Jun-20 12:28N 29°30' W 094°52'5 9.3
2018-Jun-20 11:56N 29°26' W 094°50'6 0.7
2018-Jun-20 03:12N 29°21' W 094°45'0 0.1
2018-Jun-20 02:45N 29°21' W 094°45'0 0.0
2018-Jun-20 02:30N 29°21' W 094°45'0 0.3
2018-Jun-20 02:00N 29°21' W 094°45'0 0.2
2018-Jun-20 01:30N 29°21' W 094°45'0 0.1
2018-Jun-20 01:00N 29°21' W 094°45'0 0.0
2018-Jun-20 00:30N 29°21' W 094°45'0 0.0
2018-Jun-20 00:00N 29°21' W 094°45'0 0.0
2018-Jun-19 23:30N 29°21' W 094°45'0 0.0
2018-Jun-19 23:00N 29°21' W 094°45'0 0.2
2018-Jun-19 22:27N 29°21' W 094°45'0 0.1
2018-Jun-19 21:57N 29°21' W 094°45'0 0.1
2018-Jun-19 20:36N 29°21' W 094°45'0 0.0
2018-Jun-19 20:12N 29°21' W 094°45'0 0.1
2018-Jun-19 19:51N 29°21' W 094°45'0 0.0
2018-Jun-19 19:30N 29°21' W 094°45'0 0.0
2018-Jun-19 19:00N 29°21' W 094°45'0 0.0
2018-Jun-19 18:30N 29°21' W 094°45'0 0.0
2018-Jun-19 17:57N 29°21' W 094°45'0 0.0
2018-Jun-19 17:30N 29°21' W 094°45'0 0.0
2018-Jun-19 17:00N 29°21' W 094°45'0 0.0
2018-Jun-19 16:30N 29°21' W 094°45'0 0.0
2018-Jun-19 16:00N 29°21' W 094°45'0 0.0
2018-Jun-19 15:30N 29°21' W 094°45'0 0.0
2018-Jun-19 15:00N 29°21' W 094°45'0 0.0
2018-Jun-19 14:27N 29°21' W 094°45'0 0.0
2018-Jun-19 14:00N 29°21' W 094°45'0 0.0
2018-Jun-19 06:57N 29°21' W 094°45'0 0.0
2018-Jun-19 05:27N 29°21' W 094°45'0 0.1
2018-Jun-19 05:00N 29°21' W 094°45'0 0.0
2018-Jun-19 04:21N 29°21' W 094°45'0 0.0
2018-Jun-19 04:00N 29°21' W 094°45'0 0.0
2018-Jun-19 03:21N 29°21' W 094°45'0 0.0
2018-Jun-19 03:00N 29°21' W 094°45'0 0.0
2018-Jun-19 00:36N 29°21' W 094°45'0 0.1
2018-Jun-19 00:15N 29°21' W 094°45'0 0.2
2018-Jun-19 00:00N 29°21' W 094°45'0 0.2
2018-Jun-18 23:30N 29°21' W 094°45'0 0.1
2018-Jun-18 22:51N 29°21' W 094°45'0 0.0
2018-Jun-18 22:30N 29°21' W 094°45'0 0.1
2018-Jun-18 22:00N 29°21' W 094°45'0 0.1
2018-Jun-18 21:30N 29°21' W 094°45'0 0.1
2018-Jun-18 21:00N 29°21' W 094°45'0 0.0
2018-Jun-18 20:00N 29°21' W 094°45'0 0.1
2018-Jun-18 18:27N 29°21' W 094°45'0 0.1
2018-Jun-18 18:00N 29°21' W 094°45'0 0.0
2018-Jun-18 17:27N 29°21' W 094°45'0 0.0
2018-Jun-18 17:00N 29°21' W 094°45'0 0.0
2018-Jun-18 16:30N 29°21' W 094°45'0 0.0
2018-Jun-18 16:00N 29°21' W 094°45'0 0.0
2018-Jun-18 15:30N 29°21' W 094°45'0 0.0
2018-Jun-18 15:00N 29°21' W 094°45'0 0.0
2018-Jun-18 14:30N 29°21' W 094°45'0 0.1
2018-Jun-18 14:00N 29°21' W 094°45'0 0.0
2018-Jun-18 13:30N 29°21' W 094°45'0 0.0
2018-Jun-18 13:00N 29°21' W 094°45'0 0.0
2018-Jun-18 12:30N 29°21' W 094°45'0 0.0
2018-Jun-18 12:00N 29°21' W 094°45'0 0.0
2018-Jun-18 11:24N 29°21' W 094°45'0 0.1
2018-Jun-18 10:51N 29°21' W 094°45'0 0.1
2018-Jun-18 10:27N 29°21' W 094°45'0 0.2
2018-Jun-18 10:00N 29°21' W 094°45'0 0.2
2018-Jun-18 09:27N 29°21' W 094°45'0 0.0
2018-Jun-18 09:00N 29°21' W 094°45'0 0.1
2018-Jun-18 08:30N 29°21' W 094°45'0 0.1
2018-Jun-18 08:00N 29°21' W 094°45'0 0.0
2018-Jun-18 07:30N 29°21' W 094°45'0 0.0
2018-Jun-18 07:00N 29°21' W 094°45'0 0.1
2018-Jun-18 06:30N 29°21' W 094°45'0 0.1
2018-Jun-18 06:00N 29°21' W 094°45'0 0.1
2018-Jun-18 05:30N 29°21' W 094°45'0 0.0
2018-Jun-18 05:00N 29°21' W 094°45'0 0.0
2018-Jun-18 04:27N 29°21' W 094°45'0 0.1
2018-Jun-18 03:30N 29°21' W 094°45'0 0.0
2018-Jun-18 02:51N 29°21' W 094°45'0 0.0
2018-Jun-18 02:24N 29°21' W 094°45'0 0.0
2018-Jun-18 01:21N 29°21' W 094°45'0 0.0
2018-Jun-18 00:54N 29°21' W 094°45'0 0.0
2018-Jun-17 23:12N 29°21' W 094°45'0 0.0
2018-Jun-17 22:39N 29°21' W 094°45'0 0.1
2018-Jun-17 22:24N 29°21' W 094°45'0 0.1
2018-Jun-17 21:42N 29°21' W 094°45'0 0.1
2018-Jun-17 21:30N 29°21' W 094°45'0 0.0
2018-Jun-17 20:42N 29°21' W 094°45'0 0.0
2018-Jun-17 19:42N 29°21' W 094°45'0 0.1
2018-Jun-17 19:30N 29°21' W 094°45'0 0.0
2018-Jun-17 19:00N 29°21' W 094°45'0 0.0
2018-Jun-17 18:30N 29°21' W 094°45'0 0.0
2018-Jun-17 17:57N 29°21' W 094°45'0 0.0
2018-Jun-17 17:30N 29°21' W 094°45'0 0.0
2018-Jun-17 17:00N 29°21' W 094°45'0 0.0
2018-Jun-17 16:30N 29°21' W 094°45'0 0.0
2018-Jun-17 16:00N 29°21' W 094°45'0 0.0
2018-Jun-17 15:27N 29°21' W 094°45'0 0.0
2018-Jun-17 15:00N 29°21' W 094°45'0 0.0
2018-Jun-17 14:27N 29°21' W 094°45'0 0.0
2018-Jun-17 14:00N 29°21' W 094°45'0 0.0
2018-Jun-17 03:21N 29°21' W 094°45'0 0.0
2018-Jun-17 02:24N 29°21' W 094°45'0 0.2
2018-Jun-17 02:00N 29°21' W 094°45'0 0.1
2018-Jun-16 23:48N 29°21' W 094°45'0 0.0
2018-Jun-16 21:48N 29°21' W 094°45'0 0.0
2018-Jun-16 21:24N 29°21' W 094°45'0 0.0
2018-Jun-16 20:54N 29°21' W 094°45'0 0.0
2018-Jun-16 20:18N 29°21' W 094°45'0 0.1
2018-Jun-16 20:00N 29°21' W 094°45'0 0.0
2018-Jun-16 19:30N 29°21' W 094°45'0 0.0
2018-Jun-16 19:00N 29°21' W 094°45'0 0.0
2018-Jun-16 18:27N 29°21' W 094°45'0 0.0
2018-Jun-16 18:00N 29°21' W 094°45'0 0.0
2018-Jun-16 17:30N 29°21' W 094°45'0 0.0
2018-Jun-16 17:00N 29°21' W 094°45'0 0.0
2018-Jun-16 16:30N 29°21' W 094°45'0 0.0
2018-Jun-16 16:00N 29°21' W 094°45'0 0.0
2018-Jun-16 15:30N 29°21' W 094°45'0 0.0
2018-Jun-16 14:57N 29°21' W 094°45'0 0.0
2018-Jun-16 14:30N 29°21' W 094°45'0 0.0
2018-Jun-16 14:00N 29°21' W 094°45'0 0.0
2018-Jun-16 13:30N 29°21' W 094°45'0 0.0
2018-Jun-16 13:00N 29°21' W 094°45'0 0.0
2018-Jun-16 12:30N 29°21' W 094°45'0 0.0
2018-Jun-16 12:00N 29°21' W 094°45'0 0.0
2018-Jun-16 08:24N 29°21' W 094°45'0 0.1
2018-Jun-16 08:00N 29°21' W 094°45'0 0.0
2018-Jun-16 07:30N 29°21' W 094°45'0 0.1
2018-Jun-16 07:00N 29°21' W 094°45'0 0.3
2018-Jun-16 06:30N 29°21' W 094°45'2 4.8
2018-Jun-16 06:00N 29°21' W 094°42'23 8.9
2018-Jun-16 03:25N 29°13' W 094°17'610.6
2018-Jun-16 02:52N 29°17' W 094°12'410.6
2018-Jun-16 02:29N 29°20' W 094°09'510.6
2018-Jun-16 02:00N 29°24' W 094°05'510.6
2018-Jun-16 01:30N 29°27' W 094°01'510.2
2018-Jun-16 01:00N 29°30' W 093°55'510.7
2018-Jun-16 00:30N 29°31' W 093°49'4 7.5
2018-Jun-16 00:00N 29°33' W 093°46'510.3
2018-Jun-15 23:30N 29°38' W 093°49'510.0
2018-Jun-15 23:00N 29°42' W 093°51'4 7.5
2018-Jun-15 22:30N 29°45' W 093°54'4 8.4
2018-Jun-15 22:00N 29°48' W 093°57'2 3.2
2018-Jun-15 21:30N 29°50' W 093°58'0 0.0
2018-Jun-15 21:00N 29°50' W 093°58'0 0.0
2018-Jun-15 20:30N 29°50' W 093°58'0 0.0
2018-Jun-15 19:59N 29°50' W 093°58'0 0.0
2018-Jun-15 19:29N 29°50' W 093°58'0 0.0
2018-Jun-15 18:56N 29°50' W 093°58'0 0.0
2018-Jun-15 18:29N 29°50' W 093°58'0 0.0
2018-Jun-15 17:59N 29°50' W 093°58'0 0.0
2018-Jun-15 17:29N 29°50' W 093°58'0 0.0
2018-Jun-15 16:59N 29°50' W 093°58'0 0.0
2018-Jun-15 16:29N 29°50' W 093°58'0 0.0
2018-Jun-15 15:59N 29°50' W 093°58'0 0.0
2018-Jun-15 15:29N 29°50' W 093°58'0 0.0
2018-Jun-15 14:59N 29°50' W 093°58'0 0.0
2018-Jun-15 14:29N 29°50' W 093°58'0 0.0
2018-Jun-15 13:59N 29°50' W 093°58'0 0.0
2018-Jun-15 13:29N 29°50' W 093°58'0 0.0
2018-Jun-15 12:59N 29°50' W 093°58'0 0.0
2018-Jun-15 12:29N 29°50' W 093°58'0 0.0
2018-Jun-15 11:59N 29°50' W 093°58'0 0.0
2018-Jun-15 11:29N 29°50' W 093°58'0 0.0
2018-Jun-15 10:59N 29°50' W 093°58'0 0.0
2018-Jun-15 10:26N 29°50' W 093°58'0 0.0
2018-Jun-15 09:59N 29°50' W 093°58'0 0.0
2018-Jun-15 09:29N 29°50' W 093°58'0 0.0
2018-Jun-15 08:59N 29°50' W 093°58'0 0.0
2018-Jun-15 08:29N 29°50' W 093°58'0 0.0
2018-Jun-15 07:59N 29°50' W 093°58'0 0.0
2018-Jun-15 07:29N 29°50' W 093°58'0 0.0
2018-Jun-15 06:59N 29°50' W 093°58'0 0.0
2018-Jun-15 06:29N 29°50' W 093°58'0 0.0
2018-Jun-15 05:59N 29°50' W 093°58'0 0.0
2018-Jun-15 05:29N 29°50' W 093°58'0 0.0
2018-Jun-15 04:59N 29°50' W 093°58'0 0.0
2018-Jun-15 04:29N 29°50' W 093°58'0 0.0
2018-Jun-15 03:59N 29°50' W 093°58'0 0.0
2018-Jun-15 03:29N 29°50' W 093°58'0 0.0
2018-Jun-15 02:59N 29°50' W 093°58'0 0.0
2018-Jun-15 02:29N 29°50' W 093°58'0 0.0
2018-Jun-15 01:59N 29°50' W 093°58'0 0.0
2018-Jun-15 01:31N 29°50' W 093°58'2 4.8
2018-Jun-15 01:00N 29°47' W 093°57'4 7.8
2018-Jun-15 00:30N 29°45' W 093°53'4 7.8
2018-Jun-15 00:01N 29°42' W 093°51'4 7.8
2018-Jun-14 23:30N 29°38' W 093°49'4 8.2
2018-Jun-14 23:00N 29°35' W 093°47'2 3.4
2018-Jun-14 22:31N 29°36' W 093°45'0 0.5
2018-Jun-14 21:59N 29°36' W 093°45'0 0.1
2018-Jun-14 21:29N 29°36' W 093°45'0 0.2
2018-Jun-14 20:59N 29°36' W 093°45'0 0.2
2018-Jun-14 20:29N 29°36' W 093°45'0 0.1
2018-Jun-14 19:59N 29°36' W 093°45'0 0.1
2018-Jun-14 19:29N 29°36' W 093°45'0 0.1
2018-Jun-14 18:59N 29°36' W 093°45'0 0.0
2018-Jun-14 18:29N 29°36' W 093°45'0 0.0
2018-Jun-14 17:59N 29°36' W 093°45'0 0.1
2018-Jun-14 17:29N 29°36' W 093°45'0 0.0
2018-Jun-14 16:59N 29°36' W 093°45'0 0.0
2018-Jun-14 16:29N 29°36' W 093°45'0 0.0
2018-Jun-14 15:56N 29°36' W 093°45'0 0.0
2018-Jun-14 15:26N 29°36' W 093°45'0 0.0
2018-Jun-14 14:59N 29°36' W 093°45'0 0.0
2018-Jun-14 14:26N 29°36' W 093°45'0 0.1
2018-Jun-14 13:59N 29°36' W 093°45'0 0.0
2018-Jun-14 13:29N 29°36' W 093°45'0 0.0
2018-Jun-14 12:59N 29°36' W 093°45'0 0.1
2018-Jun-14 12:29N 29°36' W 093°45'0 0.0
2018-Jun-14 11:59N 29°36' W 093°45'0 0.0
2018-Jun-14 11:29N 29°36' W 093°45'0 0.0
2018-Jun-14 10:59N 29°36' W 093°45'0 0.0
2018-Jun-14 10:29N 29°36' W 093°45'0 0.0
2018-Jun-14 09:59N 29°36' W 093°45'0 0.0
2018-Jun-14 09:29N 29°36' W 093°45'0 0.0
2018-Jun-14 08:59N 29°36' W 093°45'0 0.0
2018-Jun-14 08:29N 29°36' W 093°45'0 0.0
2018-Jun-14 07:59N 29°36' W 093°45'0 0.0
2018-Jun-14 07:29N 29°36' W 093°45'0 0.0
2018-Jun-14 06:59N 29°36' W 093°45'0 0.0
2018-Jun-14 06:29N 29°36' W 093°45'0 0.0
2018-Jun-14 05:59N 29°36' W 093°45'0 0.0
2018-Jun-14 05:26N 29°36' W 093°45'0 0.0
2018-Jun-14 04:59N 29°36' W 093°45'0 0.0
2018-Jun-14 04:29N 29°36' W 093°45'0 0.0
2018-Jun-14 03:59N 29°36' W 093°45'0 0.0
2018-Jun-14 03:29N 29°36' W 093°45'0 0.0
2018-Jun-14 02:59N 29°36' W 093°45'0 0.0
2018-Jun-14 02:29N 29°36' W 093°45'0 0.0
2018-Jun-14 01:59N 29°36' W 093°45'0 0.0
2018-Jun-14 01:29N 29°36' W 093°45'0 0.0
2018-Jun-14 00:59N 29°36' W 093°45'0 0.0
2018-Jun-14 00:29N 29°36' W 093°45'0 0.0
2018-Jun-13 23:59N 29°36' W 093°45'0 0.0
2018-Jun-13 23:29N 29°36' W 093°45'0 0.0
2018-Jun-13 22:59N 29°36' W 093°45'0 0.0
2018-Jun-13 22:29N 29°36' W 093°45'0 0.0
2018-Jun-13 21:59N 29°36' W 093°45'0 0.0
2018-Jun-13 21:29N 29°36' W 093°45'0 0.0
2018-Jun-13 20:59N 29°36' W 093°45'0 0.0
2018-Jun-13 20:29N 29°36' W 093°45'0 0.0
2018-Jun-13 19:59N 29°36' W 093°45'0 0.0
2018-Jun-13 19:29N 29°36' W 093°45'0 0.0
2018-Jun-13 18:59N 29°36' W 093°45'0 0.0
2018-Jun-13 18:29N 29°36' W 093°45'0 0.0
2018-Jun-13 17:59N 29°36' W 093°45'0 0.0
2018-Jun-13 17:29N 29°36' W 093°45'0 0.0
2018-Jun-13 16:59N 29°36' W 093°45'0 0.0
2018-Jun-13 16:29N 29°36' W 093°45'0 0.0
2018-Jun-13 15:59N 29°36' W 093°45'0 0.0
2018-Jun-13 15:29N 29°36' W 093°45'0 0.0
2018-Jun-13 14:59N 29°36' W 093°45'0 0.0
2018-Jun-13 14:29N 29°36' W 093°45'0 0.0
2018-Jun-13 13:59N 29°36' W 093°45'0 0.0
2018-Jun-13 13:29N 29°36' W 093°45'0 0.0
2018-Jun-13 12:59N 29°36' W 093°45'0 0.0
2018-Jun-13 12:29N 29°36' W 093°45'0 0.0
2018-Jun-13 11:59N 29°36' W 093°45'  

Dump ship's entire track history